sensor_id;sensor_type;location;lat;lon;timestamp;temperature;humidity
22698;DHT22;11516;51.612;7.510;2023-06-22T00:01:50;22.30;99.90
22698;DHT22;11516;51.612;7.510;2023-06-22T00:04:16;22.10;99.90
22698;DHT22;11516;51.612;7.510;2023-06-22T00:06:41;22.10;99.90
22698;DHT22;11516;51.612;7.510;2023-06-22T00:09:07;22.10;99.90
22698;DHT22;11516;51.612;7.510;2023-06-22T00:11:33;22.10;99.90
22698;DHT22;11516;51.612;7.510;2023-06-22T00:13:59;22.10;99.90
22698;DHT22;11516;51.612;7.510;2023-06-22T00:16:25;22.00;99.90
22698;DHT22;11516;51.612;7.510;2023-06-22T00:18:50;21.90;99.90
22698;DHT22;11516;51.612;7.510;2023-06-22T00:21:16;21.80;99.90
22698;DHT22;11516;51.612;7.510;2023-06-22T00:23:42;21.90;99.90
22698;DHT22;11516;51.612;7.510;2023-06-22T00:26:08;21.80;99.90
22698;DHT22;11516;51.612;7.510;2023-06-22T00:28:34;21.80;99.90
22698;DHT22;11516;51.612;7.510;2023-06-22T00:30:59;21.80;99.90
22698;DHT22;11516;51.612;7.510;2023-06-22T00:33:26;21.80;99.90
22698;DHT22;11516;51.612;7.510;2023-06-22T00:35:53;21.80;99.90
22698;DHT22;11516;51.612;7.510;2023-06-22T00:38:19;21.70;99.90
22698;DHT22;11516;51.612;7.510;2023-06-22T00:40:45;21.70;99.90
22698;DHT22;11516;51.612;7.510;2023-06-22T00:43:10;21.70;99.90
22698;DHT22;11516;51.612;7.510;2023-06-22T00:45:36;21.80;99.90
22698;DHT22;11516;51.612;7.510;2023-06-22T00:48:02;21.70;99.90
22698;DHT22;11516;51.612;7.510;2023-06-22T00:50:32;21.70;99.90
22698;DHT22;11516;51.612;7.510;2023-06-22T00:53:06;21.70;99.90
22698;DHT22;11516;51.612;7.510;2023-06-22T00:55:37;21.70;99.90
22698;DHT22;11516;51.612;7.510;2023-06-22T00:58:04;21.60;99.90
22698;DHT22;11516;51.612;7.510;2023-06-22T01:00:33;21.60;99.90
22698;DHT22;11516;51.612;7.510;2023-06-22T01:02:59;21.50;99.90
22698;DHT22;11516;51.612;7.510;2023-06-22T01:05:25;21.50;99.90
22698;DHT22;11516;51.612;7.510;2023-06-22T01:08:00;21.50;99.90
22698;DHT22;11516;51.612;7.510;2023-06-22T01:10:37;21.40;99.90
22698;DHT22;11516;51.612;7.510;2023-06-22T01:13:10;21.20;99.90
22698;DHT22;11516;51.612;7.510;2023-06-22T01:15:53;21.20;99.90
22698;DHT22;11516;51.612;7.510;2023-06-22T01:18:20;21.20;99.90
22698;DHT22;11516;51.612;7.510;2023-06-22T01:20:47;21.20;99.90
22698;DHT22;11516;51.612;7.510;2023-06-22T01:23:30;21.20;99.90
22698;DHT22;11516;51.612;7.510;2023-06-22T01:26:39;21.10;99.90
22698;DHT22;11516;51.612;7.510;2023-06-22T01:29:04;21.00;99.90
22698;DHT22;11516;51.612;7.510;2023-06-22T01:31:32;21.00;99.90
22698;DHT22;11516;51.612;7.510;2023-06-22T01:34:02;21.00;99.90
22698;DHT22;11516;51.612;7.510;2023-06-22T01:36:29;21.00;99.90
22698;DHT22;11516;51.612;7.510;2023-06-22T01:38:57;21.00;99.90
22698;DHT22;11516;51.612;7.510;2023-06-22T01:41:25;20.80;99.90
22698;DHT22;11516;51.612;7.510;2023-06-22T01:43:53;20.80;99.90
22698;DHT22;11516;51.612;7.510;2023-06-22T01:46:19;20.80;99.90
22698;DHT22;11516;51.612;7.510;2023-06-22T01:48:46;20.90;99.90
22698;DHT22;11516;51.612;7.510;2023-06-22T01:51:12;20.80;99.90
22698;DHT22;11516;51.612;7.510;2023-06-22T01:53:37;20.90;99.90
22698;DHT22;11516;51.612;7.510;2023-06-22T01:56:03;20.80;99.90
22698;DHT22;11516;51.612;7.510;2023-06-22T01:58:30;20.80;99.90
22698;DHT22;11516;51.612;7.510;2023-06-22T02:01:12;20.80;99.90
22698;DHT22;11516;51.612;7.510;2023-06-22T02:03:41;20.80;99.90
22698;DHT22;11516;51.612;7.510;2023-06-22T02:06:16;20.80;99.90
22698;DHT22;11516;51.612;7.510;2023-06-22T02:08:48;20.80;99.90
22698;DHT22;11516;51.612;7.510;2023-06-22T02:11:17;20.80;99.90
22698;DHT22;11516;51.612;7.510;2023-06-22T02:13:44;20.80;99.90
22698;DHT22;11516;51.612;7.510;2023-06-22T02:16:14;20.80;99.90
22698;DHT22;11516;51.612;7.510;2023-06-22T02:18:48;20.80;99.90
22698;DHT22;11516;51.612;7.510;2023-06-22T02:21:18;20.90;99.90
22698;DHT22;11516;51.612;7.510;2023-06-22T02:23:43;20.80;99.90
22698;DHT22;11516;51.612;7.510;2023-06-22T02:26:09;20.80;99.90
22698;DHT22;11516;51.612;7.510;2023-06-22T02:28:35;20.80;99.90
22698;DHT22;11516;51.612;7.510;2023-06-22T02:31:00;20.70;99.90
22698;DHT22;11516;51.612;7.510;2023-06-22T02:33:26;20.70;99.90
22698;DHT22;11516;51.612;7.510;2023-06-22T02:35:52;20.70;99.90
22698;DHT22;11516;51.612;7.510;2023-06-22T02:38:18;20.70;99.90
22698;DHT22;11516;51.612;7.510;2023-06-22T02:40:44;20.70;99.90
22698;DHT22;11516;51.612;7.510;2023-06-22T02:43:10;20.60;99.90
22698;DHT22;11516;51.612;7.510;2023-06-22T02:45:35;20.60;99.90
22698;DHT22;11516;51.612;7.510;2023-06-22T02:48:01;20.60;99.90
22698;DHT22;11516;51.612;7.510;2023-06-22T02:50:27;20.60;99.90
22698;DHT22;11516;51.612;7.510;2023-06-22T02:52:52;20.50;99.90
22698;DHT22;11516;51.612;7.510;2023-06-22T02:55:18;20.50;99.90
22698;DHT22;11516;51.612;7.510;2023-06-22T02:57:43;20.50;99.90
22698;DHT22;11516;51.612;7.510;2023-06-22T03:00:12;19.60;99.90
22698;DHT22;11516;51.612;7.510;2023-06-22T03:02:47;20.60;99.90
22698;DHT22;11516;51.612;7.510;2023-06-22T03:05:13;20.50;99.90
22698;DHT22;11516;51.612;7.510;2023-06-22T03:07:43;20.50;99.90
22698;DHT22;11516;51.612;7.510;2023-06-22T03:10:10;20.40;99.90
22698;DHT22;11516;51.612;7.510;2023-06-22T03:12:36;20.30;99.90
22698;DHT22;11516;51.612;7.510;2023-06-22T03:15:04;20.30;99.90
22698;DHT22;11516;51.612;7.510;2023-06-22T03:17:29;20.30;99.90
22698;DHT22;11516;51.612;7.510;2023-06-22T03:19:55;20.30;99.90
22698;DHT22;11516;51.612;7.510;2023-06-22T03:22:20;20.30;99.90
22698;DHT22;11516;51.612;7.510;2023-06-22T03:24:46;20.30;99.90
22698;DHT22;11516;51.612;7.510;2023-06-22T03:27:11;20.20;99.90
22698;DHT22;11516;51.612;7.510;2023-06-22T03:29:37;20.20;99.90
22698;DHT22;11516;51.612;7.510;2023-06-22T03:32:03;20.10;99.90
22698;DHT22;11516;51.612;7.510;2023-06-22T03:34:30;20.10;99.90
22698;DHT22;11516;51.612;7.510;2023-06-22T03:36:59;20.10;99.90
22698;DHT22;11516;51.612;7.510;2023-06-22T03:39:24;20.00;99.90
22698;DHT22;11516;51.612;7.510;2023-06-22T03:41:50;20.00;99.90
22698;DHT22;11516;51.612;7.510;2023-06-22T03:44:15;19.90;99.90
22698;DHT22;11516;51.612;7.510;2023-06-22T03:46:41;19.90;99.90
22698;DHT22;11516;51.612;7.510;2023-06-22T03:49:07;19.90;99.90
22698;DHT22;11516;51.612;7.510;2023-06-22T03:51:32;19.90;99.90
22698;DHT22;11516;51.612;7.510;2023-06-22T03:53:58;19.80;99.90
22698;DHT22;11516;51.612;7.510;2023-06-22T03:56:23;19.70;99.90
22698;DHT22;11516;51.612;7.510;2023-06-22T03:58:49;19.60;99.90
22698;DHT22;11516;51.612;7.510;2023-06-22T04:01:14;19.70;99.90
22698;DHT22;11516;51.612;7.510;2023-06-22T04:03:42;19.80;99.90
22698;DHT22;11516;51.612;7.510;2023-06-22T04:06:08;20.10;99.90
22698;DHT22;11516;51.612;7.510;2023-06-22T04:08:33;20.00;99.90
22698;DHT22;11516;51.612;7.510;2023-06-22T04:10:59;20.00;99.90
22698;DHT22;11516;51.612;7.510;2023-06-22T04:13:25;20.00;99.90
22698;DHT22;11516;51.612;7.510;2023-06-22T04:15:50;20.10;99.90
22698;DHT22;11516;51.612;7.510;2023-06-22T04:18:16;20.10;99.90
22698;DHT22;11516;51.612;7.510;2023-06-22T04:20:41;20.20;99.90
22698;DHT22;11516;51.612;7.510;2023-06-22T04:23:07;20.10;99.90
22698;DHT22;11516;51.612;7.510;2023-06-22T04:25:32;20.20;99.90
22698;DHT22;11516;51.612;7.510;2023-06-22T04:27:58;20.20;99.90
22698;DHT22;11516;51.612;7.510;2023-06-22T04:30:25;20.30;99.90
22698;DHT22;11516;51.612;7.510;2023-06-22T04:32:51;20.40;99.90
22698;DHT22;11516;51.612;7.510;2023-06-22T04:35:23;20.60;99.90
22698;DHT22;11516;51.612;7.510;2023-06-22T04:37:49;20.60;99.90
22698;DHT22;11516;51.612;7.510;2023-06-22T04:40:15;20.60;99.90
22698;DHT22;11516;51.612;7.510;2023-06-22T04:42:41;20.60;99.90
22698;DHT22;11516;51.612;7.510;2023-06-22T04:45:18;20.60;99.90
22698;DHT22;11516;51.612;7.510;2023-06-22T04:47:44;20.70;99.90
22698;DHT22;11516;51.612;7.510;2023-06-22T04:50:11;20.60;99.90
22698;DHT22;11516;51.612;7.510;2023-06-22T04:52:37;20.60;99.90
22698;DHT22;11516;51.612;7.510;2023-06-22T04:55:03;20.60;99.90
22698;DHT22;11516;51.612;7.510;2023-06-22T04:57:29;20.70;99.90
22698;DHT22;11516;51.612;7.510;2023-06-22T05:00:00;20.70;99.90
22698;DHT22;11516;51.612;7.510;2023-06-22T05:02:38;20.80;99.90
22698;DHT22;11516;51.612;7.510;2023-06-22T05:05:04;20.80;99.90
22698;DHT22;11516;51.612;7.510;2023-06-22T05:07:33;20.90;99.90
22698;DHT22;11516;51.612;7.510;2023-06-22T05:09:59;20.80;99.90
22698;DHT22;11516;51.612;7.510;2023-06-22T05:12:24;20.80;99.90
22698;DHT22;11516;51.612;7.510;2023-06-22T05:14:50;20.80;99.90
22698;DHT22;11516;51.612;7.510;2023-06-22T05:17:15;20.80;99.90
22698;DHT22;11516;51.612;7.510;2023-06-22T05:19:44;20.80;99.90
22698;DHT22;11516;51.612;7.510;2023-06-22T05:22:14;20.80;99.90
22698;DHT22;11516;51.612;7.510;2023-06-22T05:24:40;20.80;99.90
22698;DHT22;11516;51.612;7.510;2023-06-22T05:27:05;20.80;99.90
22698;DHT22;11516;51.612;7.510;2023-06-22T05:29:31;20.80;99.90
22698;DHT22;11516;51.612;7.510;2023-06-22T05:31:57;20.90;99.90
22698;DHT22;11516;51.612;7.510;2023-06-22T05:34:22;20.90;99.90
22698;DHT22;11516;51.612;7.510;2023-06-22T05:36:48;20.90;99.90
22698;DHT22;11516;51.612;7.510;2023-06-22T05:39:14;21.00;99.90
22698;DHT22;11516;51.612;7.510;2023-06-22T05:41:40;21.10;99.90
22698;DHT22;11516;51.612;7.510;2023-06-22T05:44:06;21.20;99.90
22698;DHT22;11516;51.612;7.510;2023-06-22T05:46:32;21.20;99.90
22698;DHT22;11516;51.612;7.510;2023-06-22T05:48:57;21.30;99.90
22698;DHT22;11516;51.612;7.510;2023-06-22T05:51:23;21.50;99.90
22698;DHT22;11516;51.612;7.510;2023-06-22T05:53:48;21.50;99.90
22698;DHT22;11516;51.612;7.510;2023-06-22T05:56:18;21.50;99.90
22698;DHT22;11516;51.612;7.510;2023-06-22T05:58:43;21.40;99.90
22698;DHT22;11516;51.612;7.510;2023-06-22T06:01:09;21.40;99.90
22698;DHT22;11516;51.612;7.510;2023-06-22T06:03:34;21.50;99.90
22698;DHT22;11516;51.612;7.510;2023-06-22T06:06:09;21.50;99.90
22698;DHT22;11516;51.612;7.510;2023-06-22T06:08:36;21.60;99.90
22698;DHT22;11516;51.612;7.510;2023-06-22T06:11:02;21.60;99.90
22698;DHT22;11516;51.612;7.510;2023-06-22T06:13:27;21.60;99.90
22698;DHT22;11516;51.612;7.510;2023-06-22T06:15:53;21.70;99.90
22698;DHT22;11516;51.612;7.510;2023-06-22T06:18:20;21.80;99.90
22698;DHT22;11516;51.612;7.510;2023-06-22T06:20:46;21.80;99.90
22698;DHT22;11516;51.612;7.510;2023-06-22T06:23:12;21.90;99.90
22698;DHT22;11516;51.612;7.510;2023-06-22T06:25:37;22.00;99.90
22698;DHT22;11516;51.612;7.510;2023-06-22T06:28:03;22.00;99.90
22698;DHT22;11516;51.612;7.510;2023-06-22T06:30:29;22.10;99.90
22698;DHT22;11516;51.612;7.510;2023-06-22T06:32:55;22.10;99.90
22698;DHT22;11516;51.612;7.510;2023-06-22T06:35:21;22.10;99.90
22698;DHT22;11516;51.612;7.510;2023-06-22T06:37:49;22.20;99.90
22698;DHT22;11516;51.612;7.510;2023-06-22T06:40:17;22.20;99.90
22698;DHT22;11516;51.612;7.510;2023-06-22T06:42:44;22.30;99.90
22698;DHT22;11516;51.612;7.510;2023-06-22T06:45:23;22.40;99.90
22698;DHT22;11516;51.612;7.510;2023-06-22T06:47:49;22.30;99.90
22698;DHT22;11516;51.612;7.510;2023-06-22T06:50:15;22.20;99.90
22698;DHT22;11516;51.612;7.510;2023-06-22T06:52:42;22.20;99.90
22698;DHT22;11516;51.612;7.510;2023-06-22T06:55:08;22.40;99.90
22698;DHT22;11516;51.612;7.510;2023-06-22T06:57:41;22.30;99.90
22698;DHT22;11516;51.612;7.510;2023-06-22T07:00:08;22.10;99.90
22698;DHT22;11516;51.612;7.510;2023-06-22T07:02:38;22.20;99.90
22698;DHT22;11516;51.612;7.510;2023-06-22T07:05:04;22.30;99.90
22698;DHT22;11516;51.612;7.510;2023-06-22T07:07:32;22.30;99.90
22698;DHT22;11516;51.612;7.510;2023-06-22T07:09:57;22.40;99.90
22698;DHT22;11516;51.612;7.510;2023-06-22T07:12:23;22.50;99.90
22698;DHT22;11516;51.612;7.510;2023-06-22T07:14:48;22.50;99.90
22698;DHT22;11516;51.612;7.510;2023-06-22T07:17:14;22.30;99.90
22698;DHT22;11516;51.612;7.510;2023-06-22T07:19:39;22.20;99.90
22698;DHT22;11516;51.612;7.510;2023-06-22T07:22:05;22.30;99.90
22698;DHT22;11516;51.612;7.510;2023-06-22T07:24:31;22.30;99.90
22698;DHT22;11516;51.612;7.510;2023-06-22T07:26:57;22.30;99.90
22698;DHT22;11516;51.612;7.510;2023-06-22T07:29:24;22.30;99.90
22698;DHT22;11516;51.612;7.510;2023-06-22T07:31:50;22.40;99.90
22698;DHT22;11516;51.612;7.510;2023-06-22T07:34:21;22.40;99.90
22698;DHT22;11516;51.612;7.510;2023-06-22T07:36:47;22.50;99.90
22698;DHT22;11516;51.612;7.510;2023-06-22T07:39:13;22.40;99.90
22698;DHT22;11516;51.612;7.510;2023-06-22T07:41:39;22.30;99.90
22698;DHT22;11516;51.612;7.510;2023-06-22T07:44:08;22.20;99.90
22698;DHT22;11516;51.612;7.510;2023-06-22T07:46:33;22.20;99.90
22698;DHT22;11516;51.612;7.510;2023-06-22T07:48:59;22.10;99.90
22698;DHT22;11516;51.612;7.510;2023-06-22T07:51:25;22.00;99.90
22698;DHT22;11516;51.612;7.510;2023-06-22T07:53:50;22.10;99.90
22698;DHT22;11516;51.612;7.510;2023-06-22T07:56:16;22.20;99.90
22698;DHT22;11516;51.612;7.510;2023-06-22T07:58:46;22.30;99.90
22698;DHT22;11516;51.612;7.510;2023-06-22T08:01:12;22.50;99.90
22698;DHT22;11516;51.612;7.510;2023-06-22T08:03:38;22.60;99.90
22698;DHT22;11516;51.612;7.510;2023-06-22T08:06:04;22.80;99.90
22698;DHT22;11516;51.612;7.510;2023-06-22T08:08:31;22.90;99.90
22698;DHT22;11516;51.612;7.510;2023-06-22T08:10:56;22.90;99.90
22698;DHT22;11516;51.612;7.510;2023-06-22T08:13:22;22.90;99.90
22698;DHT22;11516;51.612;7.510;2023-06-22T08:15:48;23.00;99.90
22698;DHT22;11516;51.612;7.510;2023-06-22T08:18:13;23.30;99.90
22698;DHT22;11516;51.612;7.510;2023-06-22T08:20:39;23.40;99.90
22698;DHT22;11516;51.612;7.510;2023-06-22T08:23:05;23.30;99.90
22698;DHT22;11516;51.612;7.510;2023-06-22T08:25:34;23.30;99.90
22698;DHT22;11516;51.612;7.510;2023-06-22T08:28:02;23.20;99.90
22698;DHT22;11516;51.612;7.510;2023-06-22T08:30:27;23.20;99.90
22698;DHT22;11516;51.612;7.510;2023-06-22T08:32:53;23.10;99.90
22698;DHT22;11516;51.612;7.510;2023-06-22T08:35:21;23.00;99.90
22698;DHT22;11516;51.612;7.510;2023-06-22T08:37:47;23.20;99.90
22698;DHT22;11516;51.612;7.510;2023-06-22T08:40:17;23.30;99.90
22698;DHT22;11516;51.612;7.510;2023-06-22T08:42:45;23.30;99.90
22698;DHT22;11516;51.612;7.510;2023-06-22T08:45:11;23.40;99.90
22698;DHT22;11516;51.612;7.510;2023-06-22T08:47:36;23.40;99.90
22698;DHT22;11516;51.612;7.510;2023-06-22T08:50:02;23.50;99.90
22698;DHT22;11516;51.612;7.510;2023-06-22T08:52:28;23.70;99.90
22698;DHT22;11516;51.612;7.510;2023-06-22T08:54:54;23.80;99.90
22698;DHT22;11516;51.612;7.510;2023-06-22T08:57:21;24.00;99.90
22698;DHT22;11516;51.612;7.510;2023-06-22T08:59:46;24.20;99.90
22698;DHT22;11516;51.612;7.510;2023-06-22T09:02:12;24.30;99.90
22698;DHT22;11516;51.612;7.510;2023-06-22T09:04:38;24.40;99.90
22698;DHT22;11516;51.612;7.510;2023-06-22T09:07:04;24.40;99.90
22698;DHT22;11516;51.612;7.510;2023-06-22T09:09:29;24.70;99.90
22698;DHT22;11516;51.612;7.510;2023-06-22T09:11:55;24.90;99.90
22698;DHT22;11516;51.612;7.510;2023-06-22T09:14:21;24.90;99.90
22698;DHT22;11516;51.612;7.510;2023-06-22T09:16:46;25.10;99.90
22698;DHT22;11516;51.612;7.510;2023-06-22T09:19:12;24.90;99.90
22698;DHT22;11516;51.612;7.510;2023-06-22T09:21:37;25.10;99.90
22698;DHT22;11516;51.612;7.510;2023-06-22T09:24:03;25.30;99.90
22698;DHT22;11516;51.612;7.510;2023-06-22T09:26:29;25.70;99.90
22698;DHT22;11516;51.612;7.510;2023-06-22T09:28:54;26.10;99.90
22698;DHT22;11516;51.612;7.510;2023-06-22T09:31:20;26.20;99.90
22698;DHT22;11516;51.612;7.510;2023-06-22T09:33:53;26.20;99.90
22698;DHT22;11516;51.612;7.510;2023-06-22T09:36:20;26.30;99.90
22698;DHT22;11516;51.612;7.510;2023-06-22T09:38:46;26.40;99.90
22698;DHT22;11516;51.612;7.510;2023-06-22T09:41:12;26.60;99.90
22698;DHT22;11516;51.612;7.510;2023-06-22T09:43:38;26.70;99.90
22698;DHT22;11516;51.612;7.510;2023-06-22T09:46:03;26.70;99.90
22698;DHT22;11516;51.612;7.510;2023-06-22T09:48:29;26.90;99.90
22698;DHT22;11516;51.612;7.510;2023-06-22T09:50:57;26.80;99.90
22698;DHT22;11516;51.612;7.510;2023-06-22T09:53:23;26.70;99.90
22698;DHT22;11516;51.612;7.510;2023-06-22T09:55:48;26.50;99.90
22698;DHT22;11516;51.612;7.510;2023-06-22T09:58:14;27.00;99.90
22698;DHT22;11516;51.612;7.510;2023-06-22T10:00:39;27.00;99.90
22698;DHT22;11516;51.612;7.510;2023-06-22T10:03:07;27.00;99.90
22698;DHT22;11516;51.612;7.510;2023-06-22T10:05:32;27.20;99.90
22698;DHT22;11516;51.612;7.510;2023-06-22T10:07:58;27.50;99.90
22698;DHT22;11516;51.612;7.510;2023-06-22T10:10:24;27.40;99.90
22698;DHT22;11516;51.612;7.510;2023-06-22T10:12:55;27.40;99.90
22698;DHT22;11516;51.612;7.510;2023-06-22T10:15:21;27.60;99.90
22698;DHT22;11516;51.612;7.510;2023-06-22T10:17:47;28.00;99.90
22698;DHT22;11516;51.612;7.510;2023-06-22T10:20:12;27.90;99.90
22698;DHT22;11516;51.612;7.510;2023-06-22T10:22:43;27.90;99.90
22698;DHT22;11516;51.612;7.510;2023-06-22T10:25:10;27.80;99.90
22698;DHT22;11516;51.612;7.510;2023-06-22T10:27:36;27.90;99.90
22698;DHT22;11516;51.612;7.510;2023-06-22T10:30:02;27.80;99.90
22698;DHT22;11516;51.612;7.510;2023-06-22T10:32:30;27.80;99.90
22698;DHT22;11516;51.612;7.510;2023-06-22T10:34:56;27.60;99.90
22698;DHT22;11516;51.612;7.510;2023-06-22T10:37:22;27.60;99.90
22698;DHT22;11516;51.612;7.510;2023-06-22T10:39:47;27.50;99.90
22698;DHT22;11516;51.612;7.510;2023-06-22T10:42:13;27.50;99.90
22698;DHT22;11516;51.612;7.510;2023-06-22T10:44:38;27.60;99.90
22698;DHT22;11516;51.612;7.510;2023-06-22T10:47:06;27.60;99.90
22698;DHT22;11516;51.612;7.510;2023-06-22T10:49:32;27.50;99.90
22698;DHT22;11516;51.612;7.510;2023-06-22T10:51:57;27.30;99.90
22698;DHT22;11516;51.612;7.510;2023-06-22T10:54:23;27.80;99.90
22698;DHT22;11516;51.612;7.510;2023-06-22T10:56:48;28.10;99.90
22698;DHT22;11516;51.612;7.510;2023-06-22T10:59:14;28.30;99.90
22698;DHT22;11516;51.612;7.510;2023-06-22T11:01:40;28.40;99.90
22698;DHT22;11516;51.612;7.510;2023-06-22T11:04:05;28.60;99.90
22698;DHT22;11516;51.612;7.510;2023-06-22T11:06:31;29.10;99.90
22698;DHT22;11516;51.612;7.510;2023-06-22T11:08:56;29.80;99.90
22698;DHT22;11516;51.612;7.510;2023-06-22T11:11:23;29.80;99.90
22698;DHT22;11516;51.612;7.510;2023-06-22T11:13:48;30.10;99.90
22698;DHT22;11516;51.612;7.510;2023-06-22T11:16:14;29.70;99.90
22698;DHT22;11516;51.612;7.510;2023-06-22T11:18:39;29.60;99.90
22698;DHT22;11516;51.612;7.510;2023-06-22T11:21:05;29.30;99.90
22698;DHT22;11516;51.612;7.510;2023-06-22T11:23:30;29.00;99.90
22698;DHT22;11516;51.612;7.510;2023-06-22T11:25:56;28.50;99.90
22698;DHT22;11516;51.612;7.510;2023-06-22T11:28:21;28.10;99.90
22698;DHT22;11516;51.612;7.510;2023-06-22T11:30:47;27.90;99.90
22698;DHT22;11516;51.612;7.510;2023-06-22T11:33:12;27.70;99.90
22698;DHT22;11516;51.612;7.510;2023-06-22T11:35:38;27.60;99.90
22698;DHT22;11516;51.612;7.510;2023-06-22T11:38:03;27.50;99.90
22698;DHT22;11516;51.612;7.510;2023-06-22T11:40:30;27.50;99.90
22698;DHT22;11516;51.612;7.510;2023-06-22T11:42:56;27.40;99.90
22698;DHT22;11516;51.612;7.510;2023-06-22T11:45:21;27.30;99.90
22698;DHT22;11516;51.612;7.510;2023-06-22T11:47:47;27.20;99.90
22698;DHT22;11516;51.612;7.510;2023-06-22T11:50:13;27.10;99.90
22698;DHT22;11516;51.612;7.510;2023-06-22T11:52:40;26.90;99.90
22698;DHT22;11516;51.612;7.510;2023-06-22T11:55:06;26.60;99.90
22698;DHT22;11516;51.612;7.510;2023-06-22T11:57:36;26.20;99.90
22698;DHT22;11516;51.612;7.510;2023-06-22T12:00:03;25.70;99.90
22698;DHT22;11516;51.612;7.510;2023-06-22T12:02:41;25.20;99.90
22698;DHT22;11516;51.612;7.510;2023-06-22T12:05:07;24.70;99.90
22698;DHT22;11516;51.612;7.510;2023-06-22T12:07:33;24.30;99.90
22698;DHT22;11516;51.612;7.510;2023-06-22T12:09:58;23.90;99.90
22698;DHT22;11516;51.612;7.510;2023-06-22T12:12:24;23.70;99.90
22698;DHT22;11516;51.612;7.510;2023-06-22T12:14:50;23.50;99.90
22698;DHT22;11516;51.612;7.510;2023-06-22T12:17:15;23.40;99.90
22698;DHT22;11516;51.612;7.510;2023-06-22T12:19:41;23.40;99.90
22698;DHT22;11516;51.612;7.510;2023-06-22T12:22:06;23.20;99.90
22698;DHT22;11516;51.612;7.510;2023-06-22T12:24:32;23.10;99.90
22698;DHT22;11516;51.612;7.510;2023-06-22T12:26:57;22.90;99.90
22698;DHT22;11516;51.612;7.510;2023-06-22T12:29:23;22.80;99.90
22698;DHT22;11516;51.612;7.510;2023-06-22T12:31:48;22.50;99.90
22698;DHT22;11516;51.612;7.510;2023-06-22T12:34:14;22.30;99.90
22698;DHT22;11516;51.612;7.510;2023-06-22T12:36:39;22.00;99.90
22698;DHT22;11516;51.612;7.510;2023-06-22T12:39:06;21.80;99.90
22698;DHT22;11516;51.612;7.510;2023-06-22T12:41:31;21.70;99.90
22698;DHT22;11516;51.612;7.510;2023-06-22T12:43:57;21.70;99.90
22698;DHT22;11516;51.612;7.510;2023-06-22T12:46:22;21.60;99.90
22698;DHT22;11516;51.612;7.510;2023-06-22T12:48:48;21.60;99.90
22698;DHT22;11516;51.612;7.510;2023-06-22T12:51:20;21.50;99.90
22698;DHT22;11516;51.612;7.510;2023-06-22T12:53:46;21.50;99.90
22698;DHT22;11516;51.612;7.510;2023-06-22T12:56:11;21.50;99.90
22698;DHT22;11516;51.612;7.510;2023-06-22T12:58:37;21.50;99.90
22698;DHT22;11516;51.612;7.510;2023-06-22T13:01:02;21.40;99.90
22698;DHT22;11516;51.612;7.510;2023-06-22T13:03:28;21.30;99.90
22698;DHT22;11516;51.612;7.510;2023-06-22T13:05:54;21.20;99.90
22698;DHT22;11516;51.612;7.510;2023-06-22T13:08:19;21.20;99.90
22698;DHT22;11516;51.612;7.510;2023-06-22T13:10:45;21.10;99.90
22698;DHT22;11516;51.612;7.510;2023-06-22T13:13:10;21.00;99.90
22698;DHT22;11516;51.612;7.510;2023-06-22T13:15:36;21.00;99.90
22698;DHT22;11516;51.612;7.510;2023-06-22T13:18:01;21.00;99.90
22698;DHT22;11516;51.612;7.510;2023-06-22T13:20:29;21.10;99.90
22698;DHT22;11516;51.612;7.510;2023-06-22T13:22:54;21.00;99.90
22698;DHT22;11516;51.612;7.510;2023-06-22T13:25:21;21.10;99.90
22698;DHT22;11516;51.612;7.510;2023-06-22T13:27:49;21.20;99.90
22698;DHT22;11516;51.612;7.510;2023-06-22T13:30:15;21.30;99.90
22698;DHT22;11516;51.612;7.510;2023-06-22T13:32:41;21.40;99.90
22698;DHT22;11516;51.612;7.510;2023-06-22T13:35:11;21.70;99.90
22698;DHT22;11516;51.612;7.510;2023-06-22T13:37:36;22.10;99.90
22698;DHT22;11516;51.612;7.510;2023-06-22T13:40:03;22.30;99.90
22698;DHT22;11516;51.612;7.510;2023-06-22T13:42:31;22.60;99.90
22698;DHT22;11516;51.612;7.510;2023-06-22T13:44:56;22.70;99.90
22698;DHT22;11516;51.612;7.510;2023-06-22T13:47:22;22.70;99.90
22698;DHT22;11516;51.612;7.510;2023-06-22T13:49:47;22.60;99.90
22698;DHT22;11516;51.612;7.510;2023-06-22T13:52:13;22.40;99.90
22698;DHT22;11516;51.612;7.510;2023-06-22T13:54:38;22.40;99.90
22698;DHT22;11516;51.612;7.510;2023-06-22T13:57:04;22.30;99.90
22698;DHT22;11516;51.612;7.510;2023-06-22T13:59:30;22.20;99.90
22698;DHT22;11516;51.612;7.510;2023-06-22T14:01:55;22.20;99.90
22698;DHT22;11516;51.612;7.510;2023-06-22T14:04:23;22.20;99.90
22698;DHT22;11516;51.612;7.510;2023-06-22T14:06:49;22.40;99.90
22698;DHT22;11516;51.612;7.510;2023-06-22T14:09:14;22.40;99.90
22698;DHT22;11516;51.612;7.510;2023-06-22T14:11:40;22.40;99.90
22698;DHT22;11516;51.612;7.510;2023-06-22T14:14:05;22.30;99.90
22698;DHT22;11516;51.612;7.510;2023-06-22T14:16:31;22.40;99.90
22698;DHT22;11516;51.612;7.510;2023-06-22T14:18:56;22.30;99.90
22698;DHT22;11516;51.612;7.510;2023-06-22T14:21:22;22.30;99.90
22698;DHT22;11516;51.612;7.510;2023-06-22T14:23:48;22.10;99.90
22698;DHT22;11516;51.612;7.510;2023-06-22T14:26:17;22.00;99.90
22698;DHT22;11516;51.612;7.510;2023-06-22T14:28:45;22.00;99.90
22698;DHT22;11516;51.612;7.510;2023-06-22T14:31:14;22.00;99.90
22698;DHT22;11516;51.612;7.510;2023-06-22T14:33:40;22.10;99.90
22698;DHT22;11516;51.612;7.510;2023-06-22T14:36:05;22.00;99.90
22698;DHT22;11516;51.612;7.510;2023-06-22T14:38:31;22.00;99.90
22698;DHT22;11516;51.612;7.510;2023-06-22T14:40:56;22.00;99.90
22698;DHT22;11516;51.612;7.510;2023-06-22T14:43:22;22.00;99.90
22698;DHT22;11516;51.612;7.510;2023-06-22T14:45:47;22.10;99.90
22698;DHT22;11516;51.612;7.510;2023-06-22T14:48:13;22.20;99.90
22698;DHT22;11516;51.612;7.510;2023-06-22T14:50:38;22.40;99.90
22698;DHT22;11516;51.612;7.510;2023-06-22T14:53:04;22.30;99.90
22698;DHT22;11516;51.612;7.510;2023-06-22T14:55:30;22.20;99.90
22698;DHT22;11516;51.612;7.510;2023-06-22T14:57:55;22.10;99.90
22698;DHT22;11516;51.612;7.510;2023-06-22T15:00:21;22.20;99.90
22698;DHT22;11516;51.612;7.510;2023-06-22T15:02:46;22.10;99.90
22698;DHT22;11516;51.612;7.510;2023-06-22T15:05:12;22.00;99.90
22698;DHT22;11516;51.612;7.510;2023-06-22T15:07:37;22.00;99.90
22698;DHT22;11516;51.612;7.510;2023-06-22T15:10:03;22.00;99.90
22698;DHT22;11516;51.612;7.510;2023-06-22T15:12:29;22.10;99.90
22698;DHT22;11516;51.612;7.510;2023-06-22T15:14:54;22.20;99.90
22698;DHT22;11516;51.612;7.510;2023-06-22T15:17:20;22.10;99.90
22698;DHT22;11516;51.612;7.510;2023-06-22T15:19:45;22.10;99.90
22698;DHT22;11516;51.612;7.510;2023-06-22T15:22:11;22.20;99.90
22698;DHT22;11516;51.612;7.510;2023-06-22T15:24:36;22.30;99.90
22698;DHT22;11516;51.612;7.510;2023-06-22T15:27:02;22.40;99.90